Time;durP1;ratioP1;P1;durP2;ratioP2;P2;SDS_P1;SDS_P2;PMS_P1;PMS_P2;Temp;Humidity;BMP_temperature;BMP_pressure;BME280_temperature;BME280_humidity;BME280_pressure;Samples;Min_cycle;Max_cycle;Signal;HPM_P1;HPM_P2
2022/08/30 00:02:12;;;;;;;8.60;7.70;;;17.30;99.90;;;;;;5003790;28;20231;-75
2022/08/30 00:04:37;;;;;;;9.68;8.63;;;17.30;99.90;;;;;;5003281;28;20170;-74
2022/08/30 00:07:03;;;;;;;8.95;8.15;;;17.20;99.90;;;;;;5002419;28;20193;-74
2022/08/30 00:09:30;;;;;;;9.82;8.82;;;17.10;99.90;;;;;;5010771;28;20320;-74
2022/08/30 00:11:56;;;;;;;9.80;8.80;;;17.10;99.90;;;;;;5001301;28;20194;-74
2022/08/30 00:14:22;;;;;;;9.82;8.93;;;17.00;99.90;;;;;;5006290;28;20183;-74
2022/08/30 00:16:47;;;;;;;9.80;8.52;;;17.00;99.90;;;;;;5012213;28;20636;-74
2022/08/30 00:19:13;;;;;;;9.98;9.00;;;17.00;99.90;;;;;;5004810;28;20251;-74
2022/08/30 00:21:39;;;;;;;8.77;7.93;;;16.90;99.90;;;;;;5003631;28;20232;-74
2022/08/30 00:24:05;;;;;;;10.18;9.23;;;16.90;99.90;;;;;;5007393;28;20197;-74
2022/08/30 00:26:30;;;;;;;10.32;9.35;;;16.90;99.90;;;;;;5006322;28;20174;-74
2022/08/30 00:28:57;;;;;;;9.00;8.20;;;16.90;99.90;;;;;;5001015;28;20225;-73
2022/08/30 00:31:23;;;;;;;9.00;8.30;;;16.90;99.90;;;;;;4997550;28;20185;-72
2022/08/30 00:33:48;;;;;;;8.02;7.43;;;16.90;99.90;;;;;;5006868;28;20177;-74
2022/08/30 00:36:14;;;;;;;8.82;7.95;;;16.80;99.90;;;;;;5004162;28;20220;-74
2022/08/30 00:38:40;;;;;;;8.02;7.22;;;16.80;99.90;;;;;;5002296;28;20652;-74
2022/08/30 00:41:06;;;;;;;9.88;8.30;;;16.80;99.90;;;;;;5007831;28;20260;-73
2022/08/30 00:43:34;;;;;;;8.50;7.80;;;16.80;99.90;;;;;;5004652;28;20607;-73
2022/08/30 00:46:03;;;;;;;10.20;9.20;;;16.80;99.90;;;;;;5001071;28;20252;-74
2022/08/30 00:48:30;;;;;;;9.23;8.32;;;16.80;99.90;;;;;;5005065;28;20639;-75
2022/08/30 00:51:02;;;;;;;9.20;8.30;;;16.80;99.90;;;;;;5006032;28;20181;-74
2022/08/30 00:53:36;;;;;;;9.18;8.38;;;16.80;99.90;;;;;;5002234;28;20224;-73
2022/08/30 00:56:03;;;;;;;11.63;9.20;;;16.70;99.90;;;;;;5005441;28;20240;-74
2022/08/30 00:58:34;;;;;;;9.27;8.25;;;16.70;99.90;;;;;;5002284;28;20301;-76
2022/08/30 01:01:00;;;;;;;8.68;7.95;;;16.70;99.90;;;;;;5006809;28;20240;-75
2022/08/30 01:03:27;;;;;;;9.10;8.20;;;16.60;99.90;;;;;;5000161;28;20245;-74
2022/08/30 01:05:53;;;;;;;9.25;8.27;;;16.60;99.90;;;;;;5006837;28;20177;-74
2022/08/30 01:08:22;;;;;;;9.43;8.52;;;16.60;99.90;;;;;;5006581;28;20261;-73
2022/08/30 01:10:50;;;;;;;9.07;8.23;;;16.60;99.90;;;;;;4998760;28;20567;-73
2022/08/30 01:13:16;;;;;;;9.23;8.40;;;16.60;99.90;;;;;;5004079;28;20720;-74
2022/08/30 01:15:44;;;;;;;10.70;9.00;;;16.60;99.90;;;;;;5006564;28;20268;-74
2022/08/30 01:18:11;;;;;;;9.73;8.80;;;16.60;99.90;;;;;;5001571;28;20208;-74
2022/08/30 01:20:45;;;;;;;8.88;8.00;;;16.60;99.90;;;;;;4998886;28;20265;-74
2022/08/30 01:23:15;;;;;;;10.45;8.60;;;16.60;99.90;;;;;;5013231;28;20168;-74
2022/08/30 01:25:43;;;;;;;10.95;9.30;;;16.70;99.90;;;;;;5011145;28;20181;-75
2022/08/30 01:28:12;;;;;;;9.38;8.45;;;16.60;99.90;;;;;;5000640;28;20247;-74
2022/08/30 01:30:39;;;;;;;10.70;8.45;;;16.60;99.90;;;;;;5003154;28;20185;-73
2022/08/30 01:33:06;;;;;;;9.18;8.38;;;16.50;99.90;;;;;;5005961;28;20201;-74
2022/08/30 01:35:58;;;;;;;10.43;9.43;;;16.40;99.90;;;;;;5000847;28;20177;-75
2022/08/30 01:38:27;;;;;;;9.70;8.88;;;16.40;99.90;;;;;;4999281;28;20236;-74
2022/08/30 01:40:58;;;;;;;9.23;8.30;;;16.50;99.90;;;;;;4999868;28;20249;-75
2022/08/30 01:43:25;;;;;;;9.27;8.30;;;16.40;99.90;;;;;;5004032;28;20189;-75
2022/08/30 01:45:51;;;;;;;9.80;9.00;;;16.40;99.90;;;;;;5000865;28;20189;-74
2022/08/30 01:48:16;;;;;;;12.25;7.55;;;16.50;99.90;;;;;;4999904;28;20212;-73
2022/08/30 01:50:42;;;;;;;9.55;8.45;;;16.40;99.90;;;;;;5010348;28;20260;-73
2022/08/30 01:53:08;;;;;;;8.52;7.82;;;16.40;99.90;;;;;;5005885;28;20190;-74
2022/08/30 01:55:34;;;;;;;9.73;8.93;;;16.30;99.90;;;;;;4993500;28;20560;-74
2022/08/30 01:58:00;;;;;;;9.80;8.90;;;16.20;99.90;;;;;;5001265;28;20205;-75
2022/08/30 02:00:25;;;;;;;10.35;8.93;;;16.30;99.90;;;;;;5008864;28;20177;-74
2022/08/30 02:02:51;;;;;;;10.07;9.20;;;16.20;99.90;;;;;;5004625;28;20182;-74
2022/08/30 02:05:17;;;;;;;10.93;9.82;;;16.20;99.90;;;;;;5007368;28;20268;-75
2022/08/30 02:07:43;;;;;;;9.50;8.60;;;16.20;99.90;;;;;;5004155;28;20661;-74
2022/08/30 02:10:09;;;;;;;10.00;9.10;;;16.10;99.90;;;;;;5005031;28;20197;-75
2022/08/30 02:12:35;;;;;;;10.05;9.18;;;16.00;99.90;;;;;;5004173;28;20203;-74
2022/08/30 02:15:00;;;;;;;10.75;9.23;;;15.90;99.90;;;;;;5000841;28;20276;-74
2022/08/30 02:17:27;;;;;;;10.52;8.90;;;15.80;99.90;;;;;;5001815;28;20637;-74
2022/08/30 02:19:52;;;;;;;10.18;9.32;;;15.80;99.90;;;;;;5000891;28;20220;-74
2022/08/30 02:22:19;;;;;;;10.23;8.93;;;15.70;99.90;;;;;;5004568;28;20181;-74
2022/08/30 02:24:45;;;;;;;10.23;9.27;;;15.80;99.90;;;;;;5000584;28;20663;-75
2022/08/30 02:27:11;;;;;;;9.32;8.43;;;15.70;99.90;;;;;;5005898;28;20256;-74
2022/08/30 02:29:37;;;;;;;10.63;8.82;;;15.80;99.90;;;;;;5008919;28;20302;-74
2022/08/30 02:32:03;;;;;;;9.82;8.93;;;15.80;99.90;;;;;;5006970;28;20267;-75
2022/08/30 02:34:28;;;;;;;9.25;8.43;;;15.80;99.90;;;;;;5005238;28;20832;-75
2022/08/30 02:36:55;;;;;;;10.13;8.40;;;15.80;99.90;;;;;;5007919;28;20189;-74
2022/08/30 02:39:20;;;;;;;9.18;8.38;;;15.80;99.90;;;;;;5003663;28;20204;-74
2022/08/30 02:41:46;;;;;;;11.48;8.48;;;15.80;99.90;;;;;;5000982;28;20174;-74
2022/08/30 02:44:12;;;;;;;9.55;8.27;;;15.70;99.90;;;;;;5002723;28;20209;-74
2022/08/30 02:46:37;;;;;;;8.98;8.18;;;15.60;99.90;;;;;;5005699;28;20614;-75
2022/08/30 02:49:04;;;;;;;13.38;8.35;;;15.60;99.90;;;;;;5005044;28;20209;-76
2022/08/30 02:51:30;;;;;;;8.82;8.02;;;15.60;99.90;;;;;;5008782;28;20245;-75
2022/08/30 02:53:55;;;;;;;8.95;8.15;;;15.60;99.90;;;;;;5009323;28;20189;-75
2022/08/30 02:56:21;;;;;;;9.50;8.50;;;15.60;99.90;;;;;;5005317;28;20205;-73
2022/08/30 02:58:47;;;;;;;14.10;8.70;;;15.50;99.90;;;;;;5006056;28;20271;-74
2022/08/30 03:01:14;;;;;;;9.32;8.30;;;15.40;99.90;;;;;;5009850;28;20636;-74
2022/08/30 03:03:41;;;;;;;9.48;8.57;;;15.40;99.90;;;;;;5009268;28;20178;-74
2022/08/30 03:06:09;;;;;;;12.23;9.52;;;15.30;99.90;;;;;;4998306;28;20891;-74
2022/08/30 03:08:35;;;;;;;9.02;8.10;;;15.30;99.90;;;;;;5000363;28;20197;-74
2022/08/30 03:11:01;;;;;;;9.80;8.80;;;15.20;99.90;;;;;;5015516;28;20185;-75
2022/08/30 03:13:28;;;;;;;11.77;8.80;;;15.20;99.90;;;;;;5009195;28;20181;-75
2022/08/30 03:15:54;;;;;;;10.27;9.35;;;15.20;99.90;;;;;;5003022;28;20687;-75
2022/08/30 03:18:20;;;;;;;11.27;9.75;;;15.20;99.90;;;;;;5017181;28;20291;-75
2022/08/30 03:20:47;;;;;;;9.80;8.77;;;15.20;99.90;;;;;;5004537;28;20548;-75
2022/08/30 03:23:13;;;;;;;9.70;8.80;;;15.20;99.90;;;;;;5009950;28;20628;-75
2022/08/30 03:25:38;;;;;;;11.82;9.63;;;15.20;99.90;;;;;;5005811;28;20239;-75
2022/08/30 03:28:05;;;;;;;12.48;9.73;;;15.20;99.90;;;;;;5007876;28;20336;-75
2022/08/30 03:30:31;;;;;;;9.60;8.73;;;15.10;99.90;;;;;;5009788;28;20185;-75
2022/08/30 03:32:57;;;;;;;10.02;9.02;;;15.10;99.90;;;;;;5000332;28;20185;-77
2022/08/30 03:35:22;;;;;;;12.20;9.90;;;15.10;99.90;;;;;;5006870;28;20668;-74
2022/08/30 03:37:49;;;;;;;9.93;8.60;;;15.10;99.90;;;;;;5000237;28;20190;-75
2022/08/30 03:40:17;;;;;;;10.70;9.68;;;15.10;99.90;;;;;;5009329;28;20241;-75
2022/08/30 03:42:43;;;;;;;9.35;8.05;;;15.10;99.90;;;;;;5010115;28;20450;-74
2022/08/30 03:45:10;;;;;;;10.20;9.25;;;15.10;99.90;;;;;;5005766;28;20189;-74
2022/08/30 03:47:36;;;;;;;9.30;8.40;;;15.20;99.90;;;;;;5011974;28;20313;-73
2022/08/30 03:50:02;;;;;;;10.48;9.20;;;15.20;99.90;;;;;;5001992;28;20197;-74
2022/08/30 03:52:27;;;;;;;9.50;8.70;;;15.20;99.90;;;;;;5000283;28;20186;-73
2022/08/30 03:54:53;;;;;;;10.35;9.35;;;15.20;99.90;;;;;;5004509;28;20199;-72
2022/08/30 03:57:18;;;;;;;10.70;9.35;;;15.20;99.90;;;;;;5010432;28;20237;-73
2022/08/30 03:59:44;;;;;;;9.23;8.43;;;15.10;99.90;;;;;;5008257;28;20688;-73
2022/08/30 04:02:10;;;;;;;9.25;8.35;;;15.00;99.90;;;;;;4999953;28;20189;-74
2022/08/30 04:04:35;;;;;;;9.32;8.35;;;15.00;99.90;;;;;;5000165;28;20224;-73
2022/08/30 04:07:01;;;;;;;10.00;9.00;;;15.00;99.90;;;;;;5000730;28;20608;-72
2022/08/30 04:09:27;;;;;;;10.02;8.15;;;15.00;99.90;;;;;;5002590;28;20569;-73
2022/08/30 04:11:53;;;;;;;9.65;8.00;;;15.00;99.90;;;;;;5009776;28;20221;-72
2022/08/30 04:14:19;;;;;;;9.38;8.48;;;15.00;99.90;;;;;;5005235;28;20189;-73
2022/08/30 04:16:44;;;;;;;8.85;7.95;;;15.10;99.90;;;;;;5004697;28;20251;-73
2022/08/30 04:19:10;;;;;;;10.52;9.38;;;15.00;99.90;;;;;;5001560;28;20262;-73
2022/08/30 04:21:36;;;;;;;12.82;8.90;;;15.10;99.90;;;;;;4999919;28;20178;-72
2022/08/30 04:24:02;;;;;;;9.57;8.05;;;15.00;99.90;;;;;;5003782;28;20209;-73
2022/08/30 04:26:28;;;;;;;10.20;9.13;;;14.90;99.90;;;;;;5001346;28;20173;-73
2022/08/30 04:28:54;;;;;;;8.80;7.90;;;15.00;99.90;;;;;;5003588;28;20276;-72
2022/08/30 04:31:20;;;;;;;9.60;8.63;;;15.10;99.90;;;;;;4998502;28;20209;-73
2022/08/30 04:33:46;;;;;;;10.50;9.20;;;15.20;99.90;;;;;;5001091;28;20182;-73
2022/08/30 04:36:13;;;;;;;9.77;8.52;;;15.20;99.90;;;;;;5000175;28;20177;-73
2022/08/30 04:38:41;;;;;;;9.98;8.98;;;15.30;99.90;;;;;;5003027;28;20709;-73
2022/08/30 04:41:14;;;;;;;10.10;9.07;;;15.40;99.90;;;;;;4997957;28;20174;-73
2022/08/30 04:43:39;;;;;;;9.20;8.45;;;15.50;99.90;;;;;;4998268;28;22654;-73
2022/08/30 04:46:07;;;;;;;8.68;7.88;;;15.40;99.90;;;;;;5015726;28;20196;-73
2022/08/30 04:48:33;;;;;;;10.43;8.23;;;15.50;99.90;;;;;;4996983;28;20317;-73
2022/08/30 04:50:58;;;;;;;9.77;8.80;;;15.50;99.90;;;;;;5007219;28;20253;-73
2022/08/30 04:53:24;;;;;;;12.70;8.45;;;15.40;99.90;;;;;;5005263;28;20204;-73
2022/08/30 04:55:50;;;;;;;8.90;8.10;;;15.40;99.90;;;;;;5005753;28;20197;-73
2022/08/30 04:58:16;;;;;;;9.05;8.20;;;15.40;99.90;;;;;;5005125;28;20201;-74
2022/08/30 05:00:45;;;;;;;10.38;8.77;;;15.40;99.90;;;;;;5008101;28;20666;-74
2022/08/30 05:03:11;;;;;;;12.02;9.05;;;15.30;99.90;;;;;;5005159;28;20185;-74
2022/08/30 05:05:40;;;;;;;9.15;8.40;;;15.30;99.90;;;;;;5002118;28;20537;-76
2022/08/30 05:08:11;;;;;;;10.48;9.38;;;15.30;99.90;;;;;;5006132;28;20197;-76
2022/08/30 05:10:39;;;;;;;9.75;8.95;;;15.40;99.90;;;;;;5006775;28;20545;-76
2022/08/30 05:13:05;;;;;;;9.80;8.75;;;15.40;99.90;;;;;;5010454;28;20181;-76
2022/08/30 05:15:31;;;;;;;9.80;8.90;;;15.50;99.90;;;;;;5007116;28;20177;-75
2022/08/30 05:17:56;;;;;;;10.52;9.10;;;15.50;99.90;;;;;;5006702;28;20700;-76
2022/08/30 05:20:22;;;;;;;9.55;8.65;;;15.60;99.90;;;;;;5005641;28;20562;-75
2022/08/30 05:22:50;;;;;;;8.32;7.57;;;15.70;99.90;;;;;;5002333;28;20541;-76
2022/08/30 05:25:19;;;;;;;10.10;9.20;;;15.80;99.90;;;;;;5002050;28;20177;-76
2022/08/30 05:27:45;;;;;;;10.48;8.63;;;15.90;99.90;;;;;;5006257;28;20582;-75
2022/08/30 05:30:13;;;;;;;8.40;7.75;;;15.90;99.90;;;;;;5003912;28;20738;-75
2022/08/30 05:32:39;;;;;;;8.20;7.45;;;16.00;99.90;;;;;;5002998;28;20193;-75
2022/08/30 05:35:06;;;;;;;9.05;8.23;;;16.10;99.90;;;;;;5006098;28;20188;-75
2022/08/30 05:37:32;;;;;;;9.20;8.30;;;16.20;99.90;;;;;;5005536;28;20271;-75
2022/08/30 05:39:58;;;;;;;9.57;8.57;;;16.20;99.90;;;;;;5007964;28;20283;-75
2022/08/30 05:42:24;;;;;;;9.50;8.70;;;16.20;99.90;;;;;;4999229;28;20170;-75
2022/08/30 05:44:51;;;;;;;9.07;8.35;;;16.30;99.90;;;;;;5003486;28;20184;-75
2022/08/30 05:47:17;;;;;;;9.63;8.63;;;16.40;99.90;;;;;;5007736;28;20177;-75
2022/08/30 05:49:42;;;;;;;9.60;8.73;;;16.40;99.90;;;;;;4995792;28;20292;-74
2022/08/30 05:52:08;;;;;;;9.82;8.82;;;16.50;99.90;;;;;;4998777;28;20186;-79
2022/08/30 05:54:34;;;;;;;11.02;10.00;;;16.70;99.90;;;;;;5002579;28;20197;-76
2022/08/30 05:56:59;;;;;;;10.73;9.73;;;16.80;99.90;;;;;;4995376;28;20186;-79
2022/08/30 05:59:25;;;;;;;9.32;8.52;;;16.80;99.90;;;;;;4995775;28;20224;-76
2022/08/30 06:01:55;;;;;;;8.93;7.93;;;16.90;99.90;;;;;;5009636;28;20580;-76
2022/08/30 06:04:21;;;;;;;9.60;8.63;;;17.10;99.90;;;;;;5009814;28;20508;-78
2022/08/30 06:06:47;;;;;;;9.93;8.98;;;17.20;99.90;;;;;;5004902;28;20284;-77
2022/08/30 06:09:13;;;;;;;9.38;8.45;;;17.30;99.90;;;;;;5006385;28;20211;-77
2022/08/30 06:11:39;;;;;;;8.77;7.88;;;17.40;99.90;;;;;;5001349;28;20252;-76
2022/08/30 06:14:05;;;;;;;10.05;9.15;;;17.50;99.90;;;;;;5005511;28;20193;-79
2022/08/30 06:16:32;;;;;;;8.40;7.60;;;17.60;99.90;;;;;;5006969;28;20447;-78
2022/08/30 06:18:58;;;;;;;8.88;8.07;;;17.90;99.90;;;;;;5000362;28;20681;-76
2022/08/30 06:21:28;;;;;;;8.98;8.05;;;18.20;99.90;;;;;;5000200;28;20177;-75
2022/08/30 06:23:55;;;;;;;11.15;8.65;;;18.40;99.90;;;;;;4998979;28;20196;-79
2022/08/30 06:26:22;;;;;;;9.30;8.60;;;18.70;99.90;;;;;;5004295;28;20172;-76
2022/08/30 06:28:48;;;;;;;9.98;8.85;;;18.80;99.90;;;;;;5004101;28;20236;-76
2022/08/30 06:31:15;;;;;;;9.00;8.23;;;19.00;99.90;;;;;;5010170;28;20510;-79
2022/08/30 06:33:42;;;;;;;8.77;7.68;;;19.10;99.90;;;;;;5017152;28;20178;-78
2022/08/30 06:36:10;;;;;;;8.38;7.68;;;19.20;99.90;;;;;;5010815;28;20197;-80
2022/08/30 06:38:36;;;;;;;8.05;7.25;;;19.40;99.90;;;;;;5013723;28;20223;-81
2022/08/30 06:41:12;;;;;;;7.93;7.22;;;19.50;99.90;;;;;;5010352;28;20273;-74
2022/08/30 06:43:37;;;;;;;7.97;7.35;;;19.60;99.90;;;;;;5011558;28;20173;-81
2022/08/30 06:46:08;;;;;;;8.85;7.93;;;19.70;99.90;;;;;;5015429;28;20201;-81
2022/08/30 06:48:33;;;;;;;11.45;8.98;;;19.80;99.90;;;;;;5013551;28;20223;-82
2022/08/30 06:50:59;;;;;;;8.20;7.47;;;20.00;99.90;;;;;;5017055;28;20185;-81
2022/08/30 06:53:28;;;;;;;9.20;8.13;;;20.10;99.90;;;;;;5012537;28;20660;-81
2022/08/30 06:55:58;;;;;;;9.35;8.52;;;20.10;99.90;;;;;;5014601;28;20185;-81
2022/08/30 06:58:24;;;;;;;9.82;8.90;;;20.20;99.90;;;;;;5013034;28;20656;-80
2022/08/30 07:00:50;;;;;;;8.40;7.50;;;20.10;99.90;;;;;;5017640;28;20223;-78
2022/08/30 07:03:15;;;;;;;9.23;8.40;;;20.10;99.90;;;;;;5012558;28;20177;-81
2022/08/30 07:05:41;;;;;;;10.20;8.65;;;20.20;99.90;;;;;;5010388;28;20186;-83
2022/08/30 07:08:06;;;;;;;12.40;9.13;;;20.30;99.90;;;;;;5011572;28;20197;-81
2022/08/30 07:10:32;;;;;;;9.75;8.35;;;20.30;99.90;;;;;;5014504;28;20189;-83
2022/08/30 07:12:58;;;;;;;8.70;7.97;;;20.40;99.90;;;;;;5013931;28;20247;-80
2022/08/30 07:15:24;;;;;;;10.40;9.35;;;20.50;99.90;;;;;;5009486;28;20178;-83
2022/08/30 07:20:41;;;;;;;10.82;9.73;;;20.60;99.90;;;;;;5022626;28;20197;-79
2022/08/30 07:23:47;;;;;;;12.95;9.77;;;20.60;99.90;;;;;;5024979;28;20229;-77
2022/08/30 07:26:16;;;;;;;10.98;9.90;;;20.50;99.90;;;;;;5030759;28;20527;-78
2022/08/30 07:28:44;;;;;;;11.80;9.60;;;20.50;99.90;;;;;;5011506;28;20220;-79
2022/08/30 07:31:11;;;;;;;11.77;8.50;;;20.50;99.90;;;;;;5018043;28;20191;-78
2022/08/30 07:33:39;;;;;;;10.02;8.43;;;20.60;99.90;;;;;;5022817;28;20245;-79
2022/08/30 07:36:06;;;;;;;13.35;9.93;;;20.70;99.90;;;;;;5016844;28;20253;-78
2022/08/30 07:38:32;;;;;;;12.13;10.18;;;20.90;99.90;;;;;;5017384;28;20209;-78
2022/08/30 07:41:00;;;;;;;15.73;9.38;;;21.30;99.90;;;;;;5023616;28;20180;-78
2022/08/30 07:43:27;;;;;;;11.32;10.23;;;21.70;99.90;;;;;;5023180;28;20180;-80
2022/08/30 07:45:52;;;;;;;11.35;10.35;;;22.00;99.90;;;;;;5021316;28;20198;-78
2022/08/30 07:48:18;;;;;;;11.70;10.63;;;22.30;99.90;;;;;;5024383;28;20196;-76
2022/08/30 07:50:45;;;;;;;11.60;10.23;;;22.60;99.90;;;;;;5012166;28;20232;-75
2022/08/30 07:53:11;;;;;;;9.93;8.93;;;23.00;99.90;;;;;;5009687;28;20181;-75
2022/08/30 07:55:37;;;;;;;11.65;9.82;;;23.40;99.90;;;;;;5009583;28;20208;-75
2022/08/30 07:58:03;;;;;;;10.65;9.55;;;23.70;99.90;;;;;;5009196;28;20210;-74
2022/08/30 08:00:29;;;;;;;10.00;9.00;;;23.70;99.90;;;;;;5014581;28;20209;-75
2022/08/30 08:02:55;;;;;;;10.18;9.30;;;23.70;99.90;;;;;;4997495;28;20556;-75
2022/08/30 08:05:21;;;;;;;8.43;7.78;;;23.80;99.90;;;;;;5005086;28;20177;-74
2022/08/30 08:07:46;;;;;;;9.52;8.63;;;23.90;99.90;;;;;;5008708;28;20284;-75
2022/08/30 08:10:12;;;;;;;9.60;8.65;;;24.00;99.90;;;;;;5012691;28;20189;-75
2022/08/30 08:12:38;;;;;;;11.90;9.65;;;24.30;99.90;;;;;;5004317;28;20217;-77
2022/08/30 08:15:05;;;;;;;15.32;13.77;;;24.50;99.90;;;;;;5003910;28;20209;-76
2022/08/30 08:17:30;;;;;;;12.60;8.85;;;24.70;99.90;;;;;;5006484;28;20250;-75
2022/08/30 08:19:56;;;;;;;10.70;9.80;;;24.80;99.90;;;;;;5009351;28;20241;-77
2022/08/30 08:22:21;;;;;;;9.05;8.25;;;24.60;99.90;;;;;;5004394;28;20247;-73
2022/08/30 08:24:48;;;;;;;10.27;8.40;;;24.50;99.90;;;;;;5004647;28;20181;-73
2022/08/30 08:27:14;;;;;;;9.23;8.27;;;24.40;99.90;;;;;;5009758;28;20280;-72
2022/08/30 08:29:39;;;;;;;8.75;7.88;;;24.30;99.90;;;;;;5002346;28;20296;-72
2022/08/30 08:32:05;;;;;;;10.85;8.82;;;24.30;99.90;;;;;;5009053;28;20193;-72
2022/08/30 08:34:31;;;;;;;9.38;8.48;;;24.20;99.90;;;;;;5015384;28;20169;-72
2022/08/30 08:36:56;;;;;;;8.80;8.02;;;24.20;99.90;;;;;;5002434;28;20720;-72
2022/08/30 08:39:22;;;;;;;8.32;7.50;;;24.20;99.90;;;;;;5004567;28;20283;-73
2022/08/30 08:42:09;;;;;;;8.45;7.78;;;24.00;99.90;;;;;;5005891;28;20234;-73
2022/08/30 08:44:53;;;;;;;11.98;8.27;;;24.10;99.90;;;;;;4999014;28;20178;-72
2022/08/30 08:47:35;;;;;;;7.55;6.95;;;24.30;99.90;;;;;;5002237;28;20322;-72
2022/08/30 08:50:04;;;;;;;9.23;8.32;;;24.40;99.90;;;;;;5009383;28;22701;-72
2022/08/30 08:55:31;;;;;;;18.20;15.15;;;24.70;99.90;;;;;;5007608;28;20663;-76
2022/08/30 08:57:57;;;;;;;25.73;23.02;;;25.00;99.90;;;;;;5007074;28;20209;-73
2022/08/30 09:00:23;;;;;;;9.32;7.95;;;25.20;99.90;;;;;;5005170;28;20691;-74
2022/08/30 09:03:01;;;;;;;8.63;7.32;;;25.30;99.90;;;;;;5003848;28;20269;-73
2022/08/30 09:05:35;;;;;;;8.68;7.80;;;25.50;99.90;;;;;;4999266;28;20224;-73
2022/08/30 09:08:04;;;;;;;10.60;7.07;;;25.80;99.90;;;;;;4999388;28;20225;-72
2022/08/30 09:10:32;;;;;;;8.65;7.95;;;27.00;99.90;;;;;;4996860;28;20182;-73
2022/08/30 09:12:57;;;;;;;7.72;6.60;;;28.80;99.90;;;;;;4997557;28;20178;-73
2022/08/30 09:15:32;;;;;;;8.00;6.80;;;30.70;97.80;;;;;;5055690;28;20568;-73
2022/08/30 09:18:03;;;;;;;7.28;6.68;;;32.70;91.40;;;;;;5046166;28;20203;-73
2022/08/30 09:20:35;;;;;;;6.40;5.90;;;34.00;81.20;;;;;;5045083;28;20592;-73
2022/08/30 09:23:31;;;;;;;6.07;5.55;;;35.30;73.70;;;;;;5049292;28;20179;-73
2022/08/30 09:25:59;;;;;;;5.93;5.43;;;36.70;63.90;;;;;;5048478;28;20334;-73
2022/08/30 09:28:53;;;;;;;5.25;4.75;;;37.60;58.70;;;;;;5044689;28;20206;-73
2022/08/30 09:31:28;;;;;;;5.85;5.40;;;38.10;56.70;;;;;;5047407;28;20394;-74
2022/08/30 09:34:06;;;;;;;6.05;5.60;;;38.50;56.10;;;;;;5046199;28;20246;-74
2022/08/30 09:36:39;;;;;;;5.63;5.13;;;38.80;53.70;;;;;;5043533;28;20716;-75
2022/08/30 09:39:14;;;;;;;5.20;4.68;;;38.70;53.40;;;;;;5044008;28;20191;-75
2022/08/30 09:41:42;;;;;;;5.43;4.93;;;38.90;53.10;;;;;;5044165;28;20206;-74
2022/08/30 09:44:24;;;;;;;5.50;5.07;;;39.30;53.50;;;;;;5042135;28;20270;-74
2022/08/30 09:46:56;;;;;;;5.10;4.80;;;39.60;52.00;;;;;;5043902;28;20553;-74
2022/08/30 09:49:37;;;;;;;5.20;4.75;;;40.20;50.80;;;;;;5045067;28;20204;-74
2022/08/30 09:52:11;;;;;;;4.82;4.43;;;40.50;50.00;;;;;;5051369;28;20182;-72
2022/08/30 09:55:15;;;;;;;4.70;4.30;;;41.30;48.00;;;;;;5043634;28;20202;-72
2022/08/30 09:57:56;;;;;;;4.60;4.20;;;41.50;47.60;;;;;;5054964;28;20266;-72
2022/08/30 10:00:27;;;;;;;4.32;4.00;;;41.50;47.40;;;;;;5047246;28;20190;-72
2022/08/30 10:03:05;;;;;;;4.60;4.30;;;41.00;46.70;;;;;;5044616;28;20175;-72
2022/08/30 10:05:41;;;;;;;4.95;4.55;;;40.90;47.70;;;;;;5046271;28;20661;-73
2022/08/30 10:08:48;;;;;;;4.90;4.50;;;41.00;47.60;;;;;;5044089;28;20196;-76
2022/08/30 10:11:31;;;;;;;4.13;3.83;;;41.80;46.50;;;;;;5040216;28;20243;-73
2022/08/30 10:14:26;;;;;;;4.90;4.50;;;42.00;45.40;;;;;;5044520;28;20203;-73
2022/08/30 10:17:37;;;;;;;4.13;3.70;;;42.20;46.60;;;;;;5047901;28;20176;-73
2022/08/30 10:20:06;;;;;;;4.63;4.22;;;42.50;44.50;;;;;;5045627;28;20179;-73
2022/08/30 10:22:41;;;;;;;4.90;4.10;;;42.20;45.10;;;;;;5056512;28;20238;-73
2022/08/30 10:25:24;;;;;;;5.75;4.07;;;42.20;44.80;;;;;;5042645;28;20195;-76
2022/08/30 10:28:20;;;;;;;4.45;4.15;;;42.70;44.40;;;;;;5030876;28;20577;-72
2022/08/30 10:30:57;;;;;;;4.20;4.00;;;43.00;44.40;;;;;;5045684;28;20224;-72
2022/08/30 10:33:34;;;;;;;3.90;3.58;;;43.30;43.70;;;;;;5032340;28;20223;-72
2022/08/30 10:36:04;;;;;;;3.80;3.50;;;43.60;43.40;;;;;;5028545;28;20176;-72
2022/08/30 10:38:34;;;;;;;3.80;3.50;;;43.40;43.70;;;;;;5026854;28;20242;-72
2022/08/30 10:41:13;;;;;;;4.05;3.75;;;44.00;42.70;;;;;;5031316;28;20172;-73
2022/08/30 10:43:58;;;;;;;4.63;4.20;;;44.50;42.20;;;;;;5031469;28;20539;-75
2022/08/30 10:46:26;;;;;;;4.30;3.90;;;44.50;41.60;;;;;;5030751;28;20578;-74
2022/08/30 10:48:54;;;;;;;4.22;3.55;;;44.90;40.10;;;;;;5029077;28;20204;-74
2022/08/30 10:51:30;;;;;;;4.25;3.63;;;45.10;41.00;;;;;;5032339;28;20191;-75
2022/08/30 10:54:03;;;;;;;3.85;3.47;;;45.60;39.90;;;;;;5030954;28;20289;-75
2022/08/30 10:56:29;;;;;;;3.90;3.60;;;45.60;39.40;;;;;;5026131;28;20180;-75
2022/08/30 10:58:57;;;;;;;3.58;3.28;;;45.40;40.30;;;;;;5026482;28;20195;-75
2022/08/30 11:01:57;;;;;;;3.67;3.38;;;45.80;39.50;;;;;;5033964;28;20230;-74
2022/08/30 11:04:46;;;;;;;3.75;3.42;;;45.90;39.10;;;;;;5032216;28;20195;-74
2022/08/30 11:07:34;;;;;;;3.38;3.17;;;46.40;39.20;;;;;;5038186;28;20184;-74
2022/08/30 11:10:21;;;;;;;4.93;3.53;;;45.80;39.20;;;;;;5030780;28;20188;-72
2022/08/30 11:13:19;;;;;;;3.53;3.22;;;46.50;38.60;;;;;;5038552;28;20175;-71
2022/08/30 11:16:18;;;;;;;3.75;3.10;;;46.70;38.00;;;;;;5028259;28;20184;-72
2022/08/30 11:18:50;;;;;;;4.57;3.65;;;46.80;37.60;;;;;;5027313;28;20646;-72
2022/08/30 11:21:25;;;;;;;3.65;3.35;;;46.50;37.50;;;;;;5034158;28;20191;-72
2022/08/30 11:24:01;;;;;;;3.60;3.35;;;44.90;39.30;;;;;;5031283;28;20234;-72
2022/08/30 11:26:45;;;;;;;3.50;3.17;;;44.70;39.20;;;;;;5030753;28;20215;-72
2022/08/30 11:29:31;;;;;;;3.83;3.47;;;45.30;37.60;;;;;;5034436;28;20683;-72
2022/08/30 11:32:22;;;;;;;3.50;3.20;;;43.50;38.20;;;;;;5030705;28;20513;-72
2022/08/30 11:34:57;;;;;;;3.47;3.17;;;42.70;39.20;;;;;;5027810;28;20290;-72
2022/08/30 11:37:37;;;;;;;3.70;3.40;;;41.90;41.70;;;;;;5029235;28;20186;-72
2022/08/30 11:40:07;;;;;;;3.55;3.35;;;40.60;41.90;;;;;;5029495;28;20176;-73
2022/08/30 11:42:44;;;;;;;3.90;3.60;;;40.30;43.90;;;;;;5024970;28;20185;-77
2022/08/30 11:45:22;;;;;;;3.58;3.28;;;41.60;41.10;;;;;;5034599;28;20187;-72
2022/08/30 11:47:58;;;;;;;3.80;3.50;;;43.40;39.00;;;;;;5029989;28;20572;-72
2022/08/30 11:51:02;;;;;;;3.20;3.00;;;44.60;38.80;;;;;;5030568;28;20242;-74
2022/08/30 11:53:45;;;;;;;3.63;3.33;;;45.20;37.10;;;;;;5026981;28;20238;-73
2022/08/30 11:56:41;;;;;;;4.72;3.55;;;45.10;36.80;;;;;;5030483;28;20172;-73
2022/08/30 11:59:30;;;;;;;3.47;3.25;;;42.60;39.20;;;;;;5022543;28;20572;-73
2022/08/30 12:01:57;;;;;;;3.58;3.13;;;40.30;42.60;;;;;;5024230;28;20176;-72
2022/08/30 12:04:48;;;;;;;3.97;3.67;;;38.50;43.20;;;;;;5027638;28;20179;-75
2022/08/30 12:07:57;;;;;;;4.18;3.80;;;36.70;46.70;;;;;;5030944;28;20215;-72
2022/08/30 12:10:48;;;;;;;4.10;3.80;;;35.40;48.60;;;;;;5027555;28;20192;-73
2022/08/30 12:13:44;;;;;;;3.78;3.47;;;34.70;49.30;;;;;;5033086;28;20310;-73
2022/08/30 12:16:21;;;;;;;4.65;3.38;;;33.90;50.80;;;;;;5029324;28;20180;-72
2022/08/30 12:19:03;;;;;;;3.85;3.55;;;33.20;51.40;;;;;;5026072;28;20203;-74
2022/08/30 12:21:31;;;;;;;5.18;4.25;;;32.60;53.30;;;;;;5026754;28;20186;-73
2022/08/30 12:24:02;;;;;;;4.25;3.85;;;32.20;54.20;;;;;;5028294;28;20230;-73
2022/08/30 12:26:35;;;;;;;4.63;4.03;;;32.10;55.20;;;;;;5031152;28;20178;-74
2022/08/30 12:29:22;;;;;;;4.40;4.00;;;32.10;54.90;;;;;;5019410;28;20271;-72
2022/08/30 12:31:58;;;;;;;5.35;4.30;;;31.70;56.30;;;;;;5028812;28;20218;-73
2022/08/30 12:34:33;;;;;;;4.72;4.32;;;31.50;57.90;;;;;;5028361;28;20183;-72
2022/08/30 12:37:09;;;;;;;3.95;3.72;;;31.50;57.60;;;;;;5030498;28;20258;-72
2022/08/30 12:39:35;;;;;;;4.15;3.88;;;31.60;57.70;;;;;;5032096;28;20200;-72
2022/08/30 12:42:12;;;;;;;3.97;3.70;;;31.90;55.70;;;;;;5036714;28;20176;-72
2022/08/30 12:44:39;;;;;;;5.28;4.63;;;32.10;56.00;;;;;;5030317;28;20172;-71
2022/08/30 12:47:05;;;;;;;6.85;4.60;;;32.00;56.80;;;;;;5030042;28;20577;-72
2022/08/30 12:49:35;;;;;;;4.57;4.18;;;31.50;57.10;;;;;;5029961;28;20208;-71
2022/08/30 12:52:35;;;;;;;6.35;4.50;;;31.90;57.00;;;;;;5031938;28;20187;-73
2022/08/30 12:55:12;;;;;;;4.53;4.13;;;33.40;55.60;;;;;;5031632;28;20244;-73
2022/08/30 12:57:43;;;;;;;4.30;4.00;;;35.10;53.30;;;;;;5036279;28;20225;-72
2022/08/30 13:00:21;;;;;;;4.82;4.28;;;35.70;50.70;;;;;;5030185;28;20509;-72
2022/08/30 13:02:50;;;;;;;4.43;3.92;;;35.80;50.80;;;;;;5025104;28;20188;-72
2022/08/30 13:05:38;;;;;;;4.40;3.95;;;35.90;50.90;;;;;;5030243;28;20179;-72
2022/08/30 13:08:17;;;;;;;6.97;6.15;;;36.30;49.50;;;;;;5032115;28;20204;-73